sensor_id;sensor_type;location;lat;lon;timestamp;temperature;humidity
16627;DHT22;8427;52.204;7.202;2022-07-06T00:01:07;12.20;99.90
16627;DHT22;8427;52.204;7.202;2022-07-06T00:03:35;12.20;99.90
16627;DHT22;8427;52.204;7.202;2022-07-06T00:06:03;12.10;99.90
16627;DHT22;8427;52.204;7.202;2022-07-06T00:08:32;12.10;99.90
16627;DHT22;8427;52.204;7.202;2022-07-06T00:11:01;12.00;99.90
16627;DHT22;8427;52.204;7.202;2022-07-06T00:13:29;12.00;99.90
16627;DHT22;8427;52.204;7.202;2022-07-06T00:15:57;12.00;99.90
16627;DHT22;8427;52.204;7.202;2022-07-06T00:18:25;11.90;99.90
16627;DHT22;8427;52.204;7.202;2022-07-06T00:20:54;11.80;99.90
16627;DHT22;8427;52.204;7.202;2022-07-06T00:23:22;11.70;99.90
16627;DHT22;8427;52.204;7.202;2022-07-06T00:25:50;11.70;99.90
16627;DHT22;8427;52.204;7.202;2022-07-06T00:28:19;11.60;99.90
16627;DHT22;8427;52.204;7.202;2022-07-06T00:30:49;11.60;99.90
16627;DHT22;8427;52.204;7.202;2022-07-06T00:33:17;11.60;99.90
16627;DHT22;8427;52.204;7.202;2022-07-06T00:35:45;11.60;99.90
16627;DHT22;8427;52.204;7.202;2022-07-06T00:38:13;11.60;99.90
16627;DHT22;8427;52.204;7.202;2022-07-06T00:40:41;11.50;99.90
16627;DHT22;8427;52.204;7.202;2022-07-06T00:43:09;11.60;99.90
16627;DHT22;8427;52.204;7.202;2022-07-06T00:45:39;11.60;99.90
16627;DHT22;8427;52.204;7.202;2022-07-06T00:48:07;11.60;99.90
16627;DHT22;8427;52.204;7.202;2022-07-06T00:50:35;11.60;99.90
16627;DHT22;8427;52.204;7.202;2022-07-06T00:53:05;11.60;99.90
16627;DHT22;8427;52.204;7.202;2022-07-06T00:55:35;11.60;99.90
16627;DHT22;8427;52.204;7.202;2022-07-06T00:58:04;11.50;99.90
16627;DHT22;8427;52.204;7.202;2022-07-06T01:00:32;11.50;99.90
16627;DHT22;8427;52.204;7.202;2022-07-06T01:03:02;11.40;99.90
16627;DHT22;8427;52.204;7.202;2022-07-06T01:05:30;11.40;99.90
16627;DHT22;8427;52.204;7.202;2022-07-06T01:07:58;11.40;99.90
16627;DHT22;8427;52.204;7.202;2022-07-06T01:10:27;11.40;99.90
16627;DHT22;8427;52.204;7.202;2022-07-06T01:12:56;11.30;99.90
16627;DHT22;8427;52.204;7.202;2022-07-06T01:15:25;11.40;99.90
16627;DHT22;8427;52.204;7.202;2022-07-06T01:17:53;11.40;99.90
16627;DHT22;8427;52.204;7.202;2022-07-06T01:20:24;11.40;99.90
16627;DHT22;8427;52.204;7.202;2022-07-06T01:22:53;11.40;99.90
16627;DHT22;8427;52.204;7.202;2022-07-06T01:25:22;11.30;99.90
16627;DHT22;8427;52.204;7.202;2022-07-06T01:27:50;11.30;99.90
16627;DHT22;8427;52.204;7.202;2022-07-06T01:30:19;11.30;99.90
16627;DHT22;8427;52.204;7.202;2022-07-06T01:32:47;11.20;99.90
16627;DHT22;8427;52.204;7.202;2022-07-06T01:35:16;11.30;99.90
16627;DHT22;8427;52.204;7.202;2022-07-06T01:37:45;11.20;99.90
16627;DHT22;8427;52.204;7.202;2022-07-06T01:40:13;11.20;99.90
16627;DHT22;8427;52.204;7.202;2022-07-06T01:42:41;11.20;99.90
16627;DHT22;8427;52.204;7.202;2022-07-06T01:45:12;11.20;99.90
16627;DHT22;8427;52.204;7.202;2022-07-06T01:47:40;11.20;99.90
16627;DHT22;8427;52.204;7.202;2022-07-06T01:50:08;11.20;99.90
16627;DHT22;8427;52.204;7.202;2022-07-06T01:52:37;11.20;99.90
16627;DHT22;8427;52.204;7.202;2022-07-06T01:55:08;11.20;99.90
16627;DHT22;8427;52.204;7.202;2022-07-06T01:57:36;11.20;99.90
16627;DHT22;8427;52.204;7.202;2022-07-06T02:00:06;11.10;99.90
16627;DHT22;8427;52.204;7.202;2022-07-06T02:02:34;11.10;99.90
16627;DHT22;8427;52.204;7.202;2022-07-06T02:05:02;11.10;99.90
16627;DHT22;8427;52.204;7.202;2022-07-06T02:07:30;11.10;99.90
16627;DHT22;8427;52.204;7.202;2022-07-06T02:09:58;11.00;99.90
16627;DHT22;8427;52.204;7.202;2022-07-06T02:12:28;11.00;99.90
16627;DHT22;8427;52.204;7.202;2022-07-06T02:14:56;10.90;99.90
16627;DHT22;8427;52.204;7.202;2022-07-06T02:17:24;10.90;99.90
16627;DHT22;8427;52.204;7.202;2022-07-06T02:19:52;10.90;99.90
16627;DHT22;8427;52.204;7.202;2022-07-06T02:22:20;10.90;99.90
16627;DHT22;8427;52.204;7.202;2022-07-06T02:24:48;10.90;99.90
16627;DHT22;8427;52.204;7.202;2022-07-06T02:27:16;10.90;99.90
16627;DHT22;8427;52.204;7.202;2022-07-06T02:29:45;11.00;99.90
16627;DHT22;8427;52.204;7.202;2022-07-06T02:32:13;11.00;99.90
16627;DHT22;8427;52.204;7.202;2022-07-06T02:34:42;11.10;99.90
16627;DHT22;8427;52.204;7.202;2022-07-06T02:37:10;11.10;99.90
16627;DHT22;8427;52.204;7.202;2022-07-06T02:39:38;11.10;99.90
16627;DHT22;8427;52.204;7.202;2022-07-06T02:42:06;11.20;99.90
16627;DHT22;8427;52.204;7.202;2022-07-06T02:44:34;11.20;99.90
16627;DHT22;8427;52.204;7.202;2022-07-06T02:47:04;11.30;99.90
16627;DHT22;8427;52.204;7.202;2022-07-06T02:49:32;11.30;99.90
16627;DHT22;8427;52.204;7.202;2022-07-06T02:52:00;11.40;99.90
16627;DHT22;8427;52.204;7.202;2022-07-06T02:54:28;11.50;99.90
16627;DHT22;8427;52.204;7.202;2022-07-06T02:56:56;11.50;99.90
16627;DHT22;8427;52.204;7.202;2022-07-06T02:59:24;11.60;99.90
16627;DHT22;8427;52.204;7.202;2022-07-06T03:01:52;11.70;99.90
16627;DHT22;8427;52.204;7.202;2022-07-06T03:04:22;11.80;99.90
16627;DHT22;8427;52.204;7.202;2022-07-06T03:06:50;11.80;99.90
16627;DHT22;8427;52.204;7.202;2022-07-06T03:09:18;11.90;99.90
16627;DHT22;8427;52.204;7.202;2022-07-06T03:11:46;12.00;99.90
16627;DHT22;8427;52.204;7.202;2022-07-06T03:14:14;12.00;99.90
16627;DHT22;8427;52.204;7.202;2022-07-06T03:16:42;12.00;99.90
16627;DHT22;8427;52.204;7.202;2022-07-06T03:19:16;12.10;99.90
16627;DHT22;8427;52.204;7.202;2022-07-06T03:21:46;12.10;99.90
16627;DHT22;8427;52.204;7.202;2022-07-06T03:24:14;12.20;99.90
16627;DHT22;8427;52.204;7.202;2022-07-06T03:26:42;12.20;99.90
16627;DHT22;8427;52.204;7.202;2022-07-06T03:29:10;12.20;99.90
16627;DHT22;8427;52.204;7.202;2022-07-06T03:31:38;12.30;99.90
16627;DHT22;8427;52.204;7.202;2022-07-06T03:34:06;12.30;99.90
16627;DHT22;8427;52.204;7.202;2022-07-06T03:36:34;12.30;99.90
16627;DHT22;8427;52.204;7.202;2022-07-06T03:39:06;12.30;99.90
16627;DHT22;8427;52.204;7.202;2022-07-06T03:41:34;12.40;99.90
16627;DHT22;8427;52.204;7.202;2022-07-06T03:44:03;12.30;99.90
16627;DHT22;8427;52.204;7.202;2022-07-06T03:46:31;12.30;99.90
16627;DHT22;8427;52.204;7.202;2022-07-06T03:48:59;12.40;99.90
16627;DHT22;8427;52.204;7.202;2022-07-06T03:51:28;12.40;99.90
16627;DHT22;8427;52.204;7.202;2022-07-06T03:53:56;12.40;99.90
16627;DHT22;8427;52.204;7.202;2022-07-06T03:56:26;12.30;99.90
16627;DHT22;8427;52.204;7.202;2022-07-06T03:58:57;12.40;99.90
16627;DHT22;8427;52.204;7.202;2022-07-06T04:01:26;12.50;99.90
16627;DHT22;8427;52.204;7.202;2022-07-06T04:03:55;12.50;99.90
16627;DHT22;8427;52.204;7.202;2022-07-06T04:06:24;12.60;99.90
16627;DHT22;8427;52.204;7.202;2022-07-06T04:08:52;12.60;99.90
16627;DHT22;8427;52.204;7.202;2022-07-06T04:11:20;12.60;99.90
16627;DHT22;8427;52.204;7.202;2022-07-06T04:13:50;12.60;99.90
16627;DHT22;8427;52.204;7.202;2022-07-06T04:16:18;12.60;99.90
16627;DHT22;8427;52.204;7.202;2022-07-06T04:18:46;12.60;99.90
16627;DHT22;8427;52.204;7.202;2022-07-06T04:21:15;12.70;99.90
16627;DHT22;8427;52.204;7.202;2022-07-06T04:23:43;12.70;99.90
16627;DHT22;8427;52.204;7.202;2022-07-06T04:26:11;12.70;99.90
16627;DHT22;8427;52.204;7.202;2022-07-06T04:28:39;12.70;99.90
16627;DHT22;8427;52.204;7.202;2022-07-06T04:31:09;12.80;99.90
16627;DHT22;8427;52.204;7.202;2022-07-06T04:33:37;12.80;99.90
16627;DHT22;8427;52.204;7.202;2022-07-06T04:36:05;12.80;99.90
16627;DHT22;8427;52.204;7.202;2022-07-06T04:38:33;12.90;99.90
16627;DHT22;8427;52.204;7.202;2022-07-06T04:41:01;12.90;99.90
16627;DHT22;8427;52.204;7.202;2022-07-06T04:43:29;13.00;99.90
16627;DHT22;8427;52.204;7.202;2022-07-06T04:45:57;13.00;99.90
16627;DHT22;8427;52.204;7.202;2022-07-06T04:48:29;13.10;99.90
16627;DHT22;8427;52.204;7.202;2022-07-06T04:50:58;13.20;99.90
16627;DHT22;8427;52.204;7.202;2022-07-06T04:53:26;13.20;99.90
16627;DHT22;8427;52.204;7.202;2022-07-06T04:55:55;13.30;99.90
16627;DHT22;8427;52.204;7.202;2022-07-06T04:58:22;13.40;99.90
16627;DHT22;8427;52.204;7.202;2022-07-06T05:00:52;13.40;99.90
16627;DHT22;8427;52.204;7.202;2022-07-06T05:03:21;13.50;99.90
16627;DHT22;8427;52.204;7.202;2022-07-06T05:05:50;13.60;99.90
16627;DHT22;8427;52.204;7.202;2022-07-06T05:08:20;13.60;99.90
16627;DHT22;8427;52.204;7.202;2022-07-06T05:10:49;13.70;99.90
16627;DHT22;8427;52.204;7.202;2022-07-06T05:13:18;13.80;99.90
16627;DHT22;8427;52.204;7.202;2022-07-06T05:15:46;13.90;99.90
16627;DHT22;8427;52.204;7.202;2022-07-06T05:18:15;13.90;99.90
16627;DHT22;8427;52.204;7.202;2022-07-06T05:20:43;14.00;99.90
16627;DHT22;8427;52.204;7.202;2022-07-06T05:23:13;14.10;99.90
16627;DHT22;8427;52.204;7.202;2022-07-06T05:25:41;14.20;99.90
16627;DHT22;8427;52.204;7.202;2022-07-06T05:28:09;14.10;99.90
16627;DHT22;8427;52.204;7.202;2022-07-06T05:30:38;14.20;99.90
16627;DHT22;8427;52.204;7.202;2022-07-06T05:33:06;14.20;99.90
16627;DHT22;8427;52.204;7.202;2022-07-06T05:35:34;14.20;99.90
16627;DHT22;8427;52.204;7.202;2022-07-06T05:38:20;14.20;99.90
16627;DHT22;8427;52.204;7.202;2022-07-06T05:40:48;14.30;99.90
16627;DHT22;8427;52.204;7.202;2022-07-06T05:43:16;14.30;99.90
16627;DHT22;8427;52.204;7.202;2022-07-06T05:45:45;14.20;99.90
16627;DHT22;8427;52.204;7.202;2022-07-06T05:48:13;14.40;99.90
16627;DHT22;8427;52.204;7.202;2022-07-06T05:50:59;14.40;99.90
16627;DHT22;8427;52.204;7.202;2022-07-06T05:53:29;14.50;99.90
16627;DHT22;8427;52.204;7.202;2022-07-06T05:55:57;14.40;99.90
16627;DHT22;8427;52.204;7.202;2022-07-06T05:58:25;14.30;99.90
16627;DHT22;8427;52.204;7.202;2022-07-06T06:00:54;14.40;99.90
16627;DHT22;8427;52.204;7.202;2022-07-06T06:03:22;14.50;99.90
16627;DHT22;8427;52.204;7.202;2022-07-06T06:05:51;14.50;99.90
16627;DHT22;8427;52.204;7.202;2022-07-06T06:08:19;14.70;99.90
16627;DHT22;8427;52.204;7.202;2022-07-06T06:10:49;14.70;99.90
16627;DHT22;8427;52.204;7.202;2022-07-06T06:13:17;14.60;99.90
16627;DHT22;8427;52.204;7.202;2022-07-06T06:15:45;14.60;99.90
16627;DHT22;8427;52.204;7.202;2022-07-06T06:18:14;14.50;99.90
16627;DHT22;8427;52.204;7.202;2022-07-06T06:20:44;14.60;99.90
16627;DHT22;8427;52.204;7.202;2022-07-06T06:23:12;14.70;99.90
16627;DHT22;8427;52.204;7.202;2022-07-06T06:25:41;14.80;99.90
16627;DHT22;8427;52.204;7.202;2022-07-06T06:28:11;14.70;99.90
16627;DHT22;8427;52.204;7.202;2022-07-06T06:30:39;14.80;99.90
16627;DHT22;8427;52.204;7.202;2022-07-06T06:33:10;14.70;99.90
16627;DHT22;8427;52.204;7.202;2022-07-06T06:35:41;14.90;99.90
16627;DHT22;8427;52.204;7.202;2022-07-06T06:38:10;15.10;99.90
16627;DHT22;8427;52.204;7.202;2022-07-06T06:40:38;15.40;99.90
16627;DHT22;8427;52.204;7.202;2022-07-06T06:43:07;15.70;99.90
16627;DHT22;8427;52.204;7.202;2022-07-06T06:45:37;15.90;99.90
16627;DHT22;8427;52.204;7.202;2022-07-06T06:48:05;16.00;99.90
16627;DHT22;8427;52.204;7.202;2022-07-06T06:50:42;16.20;99.90
16627;DHT22;8427;52.204;7.202;2022-07-06T06:53:10;16.30;99.90
16627;DHT22;8427;52.204;7.202;2022-07-06T06:55:38;16.30;99.90
16627;DHT22;8427;52.204;7.202;2022-07-06T06:58:07;16.20;99.90
16627;DHT22;8427;52.204;7.202;2022-07-06T07:00:36;16.40;99.90
16627;DHT22;8427;52.204;7.202;2022-07-06T07:03:04;16.40;99.90
16627;DHT22;8427;52.204;7.202;2022-07-06T07:05:33;16.70;99.90
16627;DHT22;8427;52.204;7.202;2022-07-06T07:08:01;16.80;99.90
16627;DHT22;8427;52.204;7.202;2022-07-06T07:10:31;16.80;99.90
16627;DHT22;8427;52.204;7.202;2022-07-06T07:13:00;16.90;99.90
16627;DHT22;8427;52.204;7.202;2022-07-06T07:15:28;17.10;99.90
16627;DHT22;8427;52.204;7.202;2022-07-06T07:17:58;17.10;99.90
16627;DHT22;8427;52.204;7.202;2022-07-06T07:20:27;17.20;99.90
16627;DHT22;8427;52.204;7.202;2022-07-06T07:22:57;17.20;99.90
16627;DHT22;8427;52.204;7.202;2022-07-06T07:25:25;17.20;99.90
16627;DHT22;8427;52.204;7.202;2022-07-06T07:27:54;17.40;99.90
16627;DHT22;8427;52.204;7.202;2022-07-06T07:30:22;17.50;99.90
16627;DHT22;8427;52.204;7.202;2022-07-06T07:32:50;17.50;99.90
16627;DHT22;8427;52.204;7.202;2022-07-06T07:35:20;17.70;99.90
16627;DHT22;8427;52.204;7.202;2022-07-06T07:37:48;17.70;99.90
16627;DHT22;8427;52.204;7.202;2022-07-06T07:40:17;17.70;99.90
16627;DHT22;8427;52.204;7.202;2022-07-06T07:42:45;17.60;99.90
16627;DHT22;8427;52.204;7.202;2022-07-06T07:45:14;17.60;99.90
16627;DHT22;8427;52.204;7.202;2022-07-06T07:47:42;17.60;99.90
16627;DHT22;8427;52.204;7.202;2022-07-06T07:50:11;17.60;99.90
16627;DHT22;8427;52.204;7.202;2022-07-06T07:52:40;17.80;99.90
16627;DHT22;8427;52.204;7.202;2022-07-06T07:55:09;18.00;99.90
16627;DHT22;8427;52.204;7.202;2022-07-06T07:57:58;18.10;99.90
16627;DHT22;8427;52.204;7.202;2022-07-06T08:00:26;18.20;99.90
16627;DHT22;8427;52.204;7.202;2022-07-06T08:02:55;18.30;99.90
16627;DHT22;8427;52.204;7.202;2022-07-06T08:05:24;18.40;99.90
16627;DHT22;8427;52.204;7.202;2022-07-06T08:07:53;18.40;99.90
16627;DHT22;8427;52.204;7.202;2022-07-06T08:10:22;18.20;99.90
16627;DHT22;8427;52.204;7.202;2022-07-06T08:12:50;18.10;99.90
16627;DHT22;8427;52.204;7.202;2022-07-06T08:15:18;17.80;99.90
16627;DHT22;8427;52.204;7.202;2022-07-06T08:17:47;17.60;99.90
16627;DHT22;8427;52.204;7.202;2022-07-06T08:20:15;17.60;99.90
16627;DHT22;8427;52.204;7.202;2022-07-06T08:22:43;17.80;99.90
16627;DHT22;8427;52.204;7.202;2022-07-06T08:25:13;17.90;99.90
16627;DHT22;8427;52.204;7.202;2022-07-06T08:27:41;18.30;99.90
16627;DHT22;8427;52.204;7.202;2022-07-06T08:30:11;18.60;99.90
16627;DHT22;8427;52.204;7.202;2022-07-06T08:32:39;18.70;99.90
16627;DHT22;8427;52.204;7.202;2022-07-06T08:35:28;18.50;99.90
16627;DHT22;8427;52.204;7.202;2022-07-06T08:37:56;18.00;99.90
16627;DHT22;8427;52.204;7.202;2022-07-06T08:40:26;18.10;99.90
16627;DHT22;8427;52.204;7.202;2022-07-06T08:42:59;18.10;99.90
16627;DHT22;8427;52.204;7.202;2022-07-06T08:45:28;18.20;99.90
16627;DHT22;8427;52.204;7.202;2022-07-06T08:47:59;18.10;99.90
16627;DHT22;8427;52.204;7.202;2022-07-06T08:50:31;18.10;99.90
16627;DHT22;8427;52.204;7.202;2022-07-06T08:53:00;18.30;99.90
16627;DHT22;8427;52.204;7.202;2022-07-06T08:55:31;18.30;99.90
16627;DHT22;8427;52.204;7.202;2022-07-06T08:57:59;18.20;99.90
16627;DHT22;8427;52.204;7.202;2022-07-06T09:00:27;18.10;99.90
16627;DHT22;8427;52.204;7.202;2022-07-06T09:02:56;18.20;99.90
16627;DHT22;8427;52.204;7.202;2022-07-06T09:05:25;17.90;99.90
16627;DHT22;8427;52.204;7.202;2022-07-06T09:07:53;17.90;99.90
16627;DHT22;8427;52.204;7.202;2022-07-06T09:10:26;17.50;99.90
16627;DHT22;8427;52.204;7.202;2022-07-06T09:13:01;17.30;99.90
16627;DHT22;8427;52.204;7.202;2022-07-06T09:15:30;17.70;99.90
16627;DHT22;8427;52.204;7.202;2022-07-06T09:17:59;18.20;99.90
16627;DHT22;8427;52.204;7.202;2022-07-06T09:20:27;18.60;99.90
16627;DHT22;8427;52.204;7.202;2022-07-06T09:22:59;19.10;99.90
16627;DHT22;8427;52.204;7.202;2022-07-06T09:25:28;19.60;99.90
16627;DHT22;8427;52.204;7.202;2022-07-06T09:27:59;19.80;99.90
16627;DHT22;8427;52.204;7.202;2022-07-06T09:30:29;20.00;99.90
16627;DHT22;8427;52.204;7.202;2022-07-06T09:32:58;20.00;99.90
16627;DHT22;8427;52.204;7.202;2022-07-06T09:35:28;20.20;99.90
16627;DHT22;8427;52.204;7.202;2022-07-06T09:38:03;20.10;99.90
16627;DHT22;8427;52.204;7.202;2022-07-06T09:40:33;19.80;99.90
16627;DHT22;8427;52.204;7.202;2022-07-06T09:43:12;19.30;99.90
16627;DHT22;8427;52.204;7.202;2022-07-06T09:45:43;19.10;99.90
16627;DHT22;8427;52.204;7.202;2022-07-06T09:48:12;19.30;99.90
16627;DHT22;8427;52.204;7.202;2022-07-06T09:50:43;19.30;99.90
16627;DHT22;8427;52.204;7.202;2022-07-06T09:53:12;19.40;99.90
16627;DHT22;8427;52.204;7.202;2022-07-06T09:55:44;19.60;99.90
16627;DHT22;8427;52.204;7.202;2022-07-06T09:58:14;20.10;99.90
16627;DHT22;8427;52.204;7.202;2022-07-06T10:00:44;20.30;99.90
16627;DHT22;8427;52.204;7.202;2022-07-06T10:03:13;20.30;99.90
16627;DHT22;8427;52.204;7.202;2022-07-06T10:05:44;20.10;99.90
16627;DHT22;8427;52.204;7.202;2022-07-06T10:08:14;19.40;99.90
16627;DHT22;8427;52.204;7.202;2022-07-06T10:10:43;19.00;99.90
16627;DHT22;8427;52.204;7.202;2022-07-06T10:13:15;18.80;99.90
16627;DHT22;8427;52.204;7.202;2022-07-06T10:15:48;18.80;99.90
16627;DHT22;8427;52.204;7.202;2022-07-06T10:18:16;18.90;99.90
16627;DHT22;8427;52.204;7.202;2022-07-06T10:20:45;19.10;99.90
16627;DHT22;8427;52.204;7.202;2022-07-06T10:23:13;19.40;99.90
16627;DHT22;8427;52.204;7.202;2022-07-06T10:25:43;19.50;99.90
16627;DHT22;8427;52.204;7.202;2022-07-06T10:28:12;19.40;99.90
16627;DHT22;8427;52.204;7.202;2022-07-06T10:30:44;19.70;99.90
16627;DHT22;8427;52.204;7.202;2022-07-06T10:33:14;20.00;99.90
16627;DHT22;8427;52.204;7.202;2022-07-06T10:35:43;20.30;99.90
16627;DHT22;8427;52.204;7.202;2022-07-06T10:38:12;20.50;99.90
16627;DHT22;8427;52.204;7.202;2022-07-06T10:40:41;20.70;99.90
16627;DHT22;8427;52.204;7.202;2022-07-06T10:43:34;20.80;99.90
16627;DHT22;8427;52.204;7.202;2022-07-06T10:46:08;20.70;99.90
16627;DHT22;8427;52.204;7.202;2022-07-06T10:48:39;20.70;99.90
16627;DHT22;8427;52.204;7.202;2022-07-06T10:51:09;20.20;99.90
16627;DHT22;8427;52.204;7.202;2022-07-06T10:53:39;20.40;99.90
16627;DHT22;8427;52.204;7.202;2022-07-06T10:56:09;20.30;99.90
16627;DHT22;8427;52.204;7.202;2022-07-06T10:58:46;21.00;99.90
16627;DHT22;8427;52.204;7.202;2022-07-06T11:01:17;21.20;99.90
16627;DHT22;8427;52.204;7.202;2022-07-06T11:03:47;21.10;99.90
16627;DHT22;8427;52.204;7.202;2022-07-06T11:06:17;21.10;99.90
16627;DHT22;8427;52.204;7.202;2022-07-06T11:08:51;20.80;99.90
16627;DHT22;8427;52.204;7.202;2022-07-06T11:11:22;20.80;99.90
16627;DHT22;8427;52.204;7.202;2022-07-06T11:13:55;20.20;99.90
16627;DHT22;8427;52.204;7.202;2022-07-06T11:16:26;20.30;99.90
16627;DHT22;8427;52.204;7.202;2022-07-06T11:19:06;20.50;99.90
16627;DHT22;8427;52.204;7.202;2022-07-06T11:21:37;20.40;99.90
16627;DHT22;8427;52.204;7.202;2022-07-06T11:24:07;20.70;99.90
16627;DHT22;8427;52.204;7.202;2022-07-06T11:26:36;21.10;99.90
16627;DHT22;8427;52.204;7.202;2022-07-06T11:29:08;21.40;99.90
16627;DHT22;8427;52.204;7.202;2022-07-06T11:31:40;21.00;99.90
16627;DHT22;8427;52.204;7.202;2022-07-06T11:34:11;20.60;99.90
16627;DHT22;8427;52.204;7.202;2022-07-06T11:36:40;20.50;99.90
16627;DHT22;8427;52.204;7.202;2022-07-06T11:39:12;20.60;99.90
16627;DHT22;8427;52.204;7.202;2022-07-06T11:41:41;20.50;99.90
16627;DHT22;8427;52.204;7.202;2022-07-06T11:44:16;20.50;99.90
16627;DHT22;8427;52.204;7.202;2022-07-06T11:46:46;20.60;99.90
16627;DHT22;8427;52.204;7.202;2022-07-06T11:49:15;21.10;99.90
16627;DHT22;8427;52.204;7.202;2022-07-06T11:51:45;21.20;99.90
16627;DHT22;8427;52.204;7.202;2022-07-06T11:54:14;21.00;99.90
16627;DHT22;8427;52.204;7.202;2022-07-06T11:56:47;20.90;99.90
16627;DHT22;8427;52.204;7.202;2022-07-06T11:59:16;20.80;99.90
16627;DHT22;8427;52.204;7.202;2022-07-06T12:01:45;20.70;99.90
16627;DHT22;8427;52.204;7.202;2022-07-06T12:04:14;20.90;99.90
16627;DHT22;8427;52.204;7.202;2022-07-06T12:06:44;21.30;99.90
16627;DHT22;8427;52.204;7.202;2022-07-06T12:09:12;21.50;99.90
16627;DHT22;8427;52.204;7.202;2022-07-06T12:11:45;21.70;99.90
16627;DHT22;8427;52.204;7.202;2022-07-06T12:14:15;21.70;99.90
16627;DHT22;8427;52.204;7.202;2022-07-06T12:16:46;21.60;99.90
16627;DHT22;8427;52.204;7.202;2022-07-06T12:19:15;21.70;99.90
16627;DHT22;8427;52.204;7.202;2022-07-06T12:21:46;22.00;99.90
16627;DHT22;8427;52.204;7.202;2022-07-06T12:24:18;22.00;99.90
16627;DHT22;8427;52.204;7.202;2022-07-06T12:26:48;21.80;99.90
16627;DHT22;8427;52.204;7.202;2022-07-06T12:29:16;21.80;99.90
16627;DHT22;8427;52.204;7.202;2022-07-06T12:31:50;21.60;99.90
16627;DHT22;8427;52.204;7.202;2022-07-06T12:34:20;21.20;99.90
16627;DHT22;8427;52.204;7.202;2022-07-06T12:36:50;21.00;99.90
16627;DHT22;8427;52.204;7.202;2022-07-06T12:39:21;21.10;99.90
16627;DHT22;8427;52.204;7.202;2022-07-06T12:41:50;21.40;99.90
16627;DHT22;8427;52.204;7.202;2022-07-06T12:46:51;22.00;99.90
16627;DHT22;8427;52.204;7.202;2022-07-06T12:49:29;22.70;99.90
16627;DHT22;8427;52.204;7.202;2022-07-06T12:51:59;22.80;99.90
16627;DHT22;8427;52.204;7.202;2022-07-06T12:54:29;22.70;99.90
16627;DHT22;8427;52.204;7.202;2022-07-06T12:57:07;22.90;99.90
16627;DHT22;8427;52.204;7.202;2022-07-06T12:59:40;23.00;99.90
16627;DHT22;8427;52.204;7.202;2022-07-06T13:02:18;23.30;99.90
16627;DHT22;8427;52.204;7.202;2022-07-06T13:05:05;23.70;99.90
16627;DHT22;8427;52.204;7.202;2022-07-06T13:07:34;23.50;99.90
16627;DHT22;8427;52.204;7.202;2022-07-06T13:10:05;22.80;99.90
16627;DHT22;8427;52.204;7.202;2022-07-06T13:12:33;22.60;99.90
16627;DHT22;8427;52.204;7.202;2022-07-06T13:15:03;22.20;99.90
16627;DHT22;8427;52.204;7.202;2022-07-06T13:17:33;22.40;99.90
16627;DHT22;8427;52.204;7.202;2022-07-06T13:20:03;22.60;99.90
16627;DHT22;8427;52.204;7.202;2022-07-06T13:22:31;22.50;99.90
16627;DHT22;8427;52.204;7.202;2022-07-06T13:24:59;22.20;99.90
16627;DHT22;8427;52.204;7.202;2022-07-06T13:27:28;21.60;99.90
16627;DHT22;8427;52.204;7.202;2022-07-06T13:29:56;21.50;99.90
16627;DHT22;8427;52.204;7.202;2022-07-06T13:32:24;21.70;99.90
16627;DHT22;8427;52.204;7.202;2022-07-06T13:34:54;21.70;99.90
16627;DHT22;8427;52.204;7.202;2022-07-06T13:37:22;21.60;99.90
16627;DHT22;8427;52.204;7.202;2022-07-06T13:39:50;21.10;99.90
16627;DHT22;8427;52.204;7.202;2022-07-06T13:42:18;21.30;99.90
16627;DHT22;8427;52.204;7.202;2022-07-06T13:44:47;21.20;99.90
16627;DHT22;8427;52.204;7.202;2022-07-06T13:47:15;21.10;99.90
16627;DHT22;8427;52.204;7.202;2022-07-06T13:49:43;21.40;99.90
16627;DHT22;8427;52.204;7.202;2022-07-06T13:52:16;21.60;99.90
16627;DHT22;8427;52.204;7.202;2022-07-06T13:54:44;21.50;99.90
16627;DHT22;8427;52.204;7.202;2022-07-06T13:57:12;21.70;99.90
16627;DHT22;8427;52.204;7.202;2022-07-06T13:59:41;21.40;99.90
16627;DHT22;8427;52.204;7.202;2022-07-06T14:02:09;21.10;99.90
16627;DHT22;8427;52.204;7.202;2022-07-06T14:04:38;20.80;99.90
16627;DHT22;8427;52.204;7.202;2022-07-06T14:07:06;20.70;99.90
16627;DHT22;8427;52.204;7.202;2022-07-06T14:09:36;20.80;99.90
16627;DHT22;8427;52.204;7.202;2022-07-06T14:12:05;20.70;99.90
16627;DHT22;8427;52.204;7.202;2022-07-06T14:14:33;21.00;99.90
16627;DHT22;8427;52.204;7.202;2022-07-06T14:17:01;21.30;99.90
16627;DHT22;8427;52.204;7.202;2022-07-06T14:19:31;21.60;99.90
16627;DHT22;8427;52.204;7.202;2022-07-06T14:21:59;22.00;99.90
16627;DHT22;8427;52.204;7.202;2022-07-06T14:24:27;22.30;99.90
16627;DHT22;8427;52.204;7.202;2022-07-06T14:26:59;22.70;99.90
16627;DHT22;8427;52.204;7.202;2022-07-06T14:29:27;22.50;99.90
16627;DHT22;8427;52.204;7.202;2022-07-06T14:31:55;22.10;99.90
16627;DHT22;8427;52.204;7.202;2022-07-06T14:34:23;22.00;99.90
16627;DHT22;8427;52.204;7.202;2022-07-06T14:36:51;21.70;99.90
16627;DHT22;8427;52.204;7.202;2022-07-06T14:39:19;21.70;99.90
16627;DHT22;8427;52.204;7.202;2022-07-06T14:41:47;21.80;99.90
16627;DHT22;8427;52.204;7.202;2022-07-06T14:44:17;22.10;99.90
16627;DHT22;8427;52.204;7.202;2022-07-06T14:46:45;22.50;99.90
16627;DHT22;8427;52.204;7.202;2022-07-06T14:49:13;23.00;99.90
16627;DHT22;8427;52.204;7.202;2022-07-06T14:51:48;23.00;99.90
16627;DHT22;8427;52.204;7.202;2022-07-06T14:54:16;22.70;99.90
16627;DHT22;8427;52.204;7.202;2022-07-06T14:56:44;22.90;99.90
16627;DHT22;8427;52.204;7.202;2022-07-06T14:59:12;23.20;99.90
16627;DHT22;8427;52.204;7.202;2022-07-06T15:01:52;23.80;99.90
16627;DHT22;8427;52.204;7.202;2022-07-06T15:04:21;23.70;99.90
16627;DHT22;8427;52.204;7.202;2022-07-06T15:06:49;23.80;99.90
16627;DHT22;8427;52.204;7.202;2022-07-06T15:09:22;23.70;99.90
16627;DHT22;8427;52.204;7.202;2022-07-06T15:11:51;23.80;99.90
16627;DHT22;8427;52.204;7.202;2022-07-06T15:14:20;23.50;99.90
16627;DHT22;8427;52.204;7.202;2022-07-06T15:16:48;23.10;99.90
16627;DHT22;8427;52.204;7.202;2022-07-06T15:19:18;22.90;99.90
16627;DHT22;8427;52.204;7.202;2022-07-06T15:21:46;22.70;99.90
16627;DHT22;8427;52.204;7.202;2022-07-06T15:24:14;22.80;99.90
16627;DHT22;8427;52.204;7.202;2022-07-06T15:26:42;22.60;99.90
16627;DHT22;8427;52.204;7.202;2022-07-06T15:29:11;22.30;99.90
16627;DHT22;8427;52.204;7.202;2022-07-06T15:31:39;22.10;99.90
16627;DHT22;8427;52.204;7.202;2022-07-06T15:34:08;21.80;99.90
16627;DHT22;8427;52.204;7.202;2022-07-06T15:36:38;21.90;99.90
16627;DHT22;8427;52.204;7.202;2022-07-06T15:39:06;22.00;99.90
16627;DHT22;8427;52.204;7.202;2022-07-06T15:41:34;22.10;99.90
16627;DHT22;8427;52.204;7.202;2022-07-06T15:44:03;22.40;99.90
16627;DHT22;8427;52.204;7.202;2022-07-06T15:46:31;22.70;99.90
16627;DHT22;8427;52.204;7.202;2022-07-06T15:48:59;22.60;99.90
16627;DHT22;8427;52.204;7.202;2022-07-06T15:51:27;22.40;99.90
16627;DHT22;8427;52.204;7.202;2022-07-06T15:53:57;22.50;99.90
16627;DHT22;8427;52.204;7.202;2022-07-06T15:56:25;22.30;99.90
16627;DHT22;8427;52.204;7.202;2022-07-06T15:58:53;22.10;99.90
16627;DHT22;8427;52.204;7.202;2022-07-06T16:01:21;22.10;99.90